createdAt,value
2018-03-02T00:01:57.867Z,70.10
2018-03-02T00:04:26.231Z,69.80
2018-03-02T00:06:54.511Z,69.90
2018-03-02T00:09:22.805Z,71.10
2018-03-02T00:11:51.885Z,71.10
2018-03-02T00:14:20.176Z,70.90
2018-03-02T00:16:49.267Z,73.40
2018-03-02T00:19:17.545Z,73.40
2018-03-02T00:21:45.830Z,74.30
2018-03-02T00:24:14.885Z,76.20
2018-03-02T00:26:43.165Z,76.10
2018-03-02T00:29:11.428Z,74.60
2018-03-02T00:31:39.706Z,73.30
2018-03-02T00:34:08.006Z,74.50
2018-03-02T00:36:36.353Z,73.10
2018-03-02T00:39:04.712Z,71.70
2018-03-02T00:41:33.910Z,71.50
2018-03-02T00:44:02.208Z,70.30
2018-03-02T00:46:31.229Z,71.80
2018-03-02T00:48:59.505Z,71.70
2018-03-02T00:51:27.792Z,71.80
2018-03-02T00:53:56.067Z,72.40
2018-03-02T00:56:25.467Z,71.90
2018-03-02T00:58:53.727Z,73.30
2018-03-02T01:01:22.008Z,71.90
2018-03-02T01:03:50.348Z,70.60
2018-03-02T01:06:19.164Z,71.10
2018-03-02T01:08:47.487Z,71.10
2018-03-02T01:11:15.760Z,71.50
2018-03-02T01:13:44.827Z,72.70
2018-03-02T01:16:13.152Z,72.70
2018-03-02T01:18:41.415Z,72.30
2018-03-02T01:21:09.725Z,72.30
2018-03-02T01:23:38.024Z,72.60
2018-03-02T01:26:06.338Z,72.40
2018-03-02T01:28:35.384Z,73.30
2018-03-02T01:31:03.702Z,73.30
2018-03-02T01:33:32.801Z,71.50
2018-03-02T01:36:01.904Z,73.80
2018-03-02T01:38:30.205Z,73.80
2018-03-02T01:40:58.477Z,73.20
2018-03-02T01:43:26.845Z,71.70
2018-03-02T01:45:55.128Z,71.40
2018-03-02T01:48:23.418Z,72.30
2018-03-02T01:50:51.706Z,72.00
2018-03-02T01:53:20.021Z,71.20
2018-03-02T01:55:49.085Z,71.70
2018-03-02T01:58:17.357Z,71.70
2018-03-02T02:00:45.689Z,71.00
2018-03-02T02:03:14.073Z,70.60
2018-03-02T02:05:42.396Z,71.00
2018-03-02T02:08:10.672Z,71.60
2018-03-02T02:10:38.975Z,71.60
2018-03-02T02:13:08.105Z,71.10
2018-03-02T02:15:36.540Z,71.10
2018-03-02T02:18:04.822Z,71.00
2018-03-02T02:20:33.886Z,71.00
2018-03-02T02:23:02.173Z,71.00
2018-03-02T02:25:30.467Z,71.30
2018-03-02T02:27:58.796Z,71.30
2018-03-02T02:30:27.106Z,71.60
2018-03-02T02:32:55.392Z,71.60
2018-03-02T02:35:23.710Z,72.60
2018-03-02T02:37:52.026Z,72.30
2018-03-02T02:40:20.410Z,71.80
2018-03-02T02:42:48.902Z,72.20
2018-03-02T02:45:17.181Z,72.40
2018-03-02T02:47:45.495Z,71.80
2018-03-02T02:50:13.852Z,72.40
2018-03-02T02:52:42.948Z,73.20
2018-03-02T02:55:12.054Z,73.30
2018-03-02T02:57:40.339Z,73.30
2018-03-02T03:00:08.744Z,74.30
2018-03-02T03:02:37.053Z,73.70
2018-03-02T03:05:05.361Z,72.70
2018-03-02T03:07:33.648Z,72.50
2018-03-02T03:10:02.861Z,72.80
2018-03-02T03:12:31.134Z,72.80
2018-03-02T03:15:00.184Z,73.20
2018-03-02T03:17:29.289Z,72.50
2018-03-02T03:19:58.333Z,72.20
2018-03-02T03:22:26.629Z,72.10
2018-03-02T03:24:54.973Z,72.20
2018-03-02T03:27:23.270Z,72.60
2018-03-02T03:29:52.104Z,72.80
2018-03-02T03:32:20.408Z,73.80
2018-03-02T03:34:48.832Z,74.50
2018-03-02T03:37:17.143Z,74.30
2018-03-02T03:39:45.520Z,74.80
2018-03-02T03:42:13.820Z,75.70
2018-03-02T03:44:42.154Z,75.10
2018-03-02T03:47:11.295Z,75.40
2018-03-02T03:49:39.548Z,75.40
2018-03-02T03:52:07.873Z,75.60
2018-03-02T03:54:36.201Z,76.30
2018-03-02T03:57:04.536Z,77.00
2018-03-02T03:59:32.813Z,75.50
2018-03-02T04:02:01.135Z,74.30
2018-03-02T04:04:29.432Z,74.90
2018-03-02T04:06:57.732Z,75.70
2018-03-02T04:09:26.057Z,76.60
2018-03-02T04:11:55.098Z,76.50
2018-03-02T04:14:23.599Z,76.40
2018-03-02T04:16:51.912Z,76.70
2018-03-02T04:19:20.234Z,75.60
2018-03-02T04:21:48.533Z,76.90
2018-03-02T04:24:16.868Z,77.50
2018-03-02T04:26:46.750Z,79.40
2018-03-02T04:29:15.833Z,80.20
2018-03-02T04:31:44.955Z,80.60
2018-03-02T04:34:13.301Z,80.50
2018-03-02T04:36:41.631Z,80.30
2018-03-02T04:39:09.961Z,79.60
2018-03-02T04:41:39.017Z,81.00
2018-03-02T04:44:07.321Z,81.00
2018-03-02T04:46:35.632Z,80.50
2018-03-02T04:49:03.963Z,80.80
2018-03-02T04:51:32.852Z,81.60
2018-03-02T04:54:01.201Z,81.00
2018-03-02T04:56:29.603Z,80.10
2018-03-02T04:58:57.885Z,80.40
2018-03-02T05:01:26.277Z,79.70
2018-03-02T05:03:54.662Z,79.40
2018-03-02T05:06:22.958Z,79.90
2018-03-02T05:08:51.371Z,81.30
2018-03-02T05:11:19.680Z,81.40
2018-03-02T05:13:47.955Z,81.70
2018-03-02T05:16:16.287Z,82.10
2018-03-02T05:18:44.556Z,83.10
2018-03-02T05:21:12.851Z,83.50
2018-03-02T05:23:41.192Z,84.40
2018-03-02T05:26:10.240Z,84.70
2018-03-02T05:28:38.565Z,84.60
2018-03-02T05:31:08.236Z,84.80
2018-03-02T05:33:37.362Z,85.10
2018-03-02T05:36:06.443Z,84.50
2018-03-02T05:38:34.756Z,84.50
2018-03-02T05:41:03.066Z,85.30
2018-03-02T05:43:31.324Z,84.50
2018-03-02T05:45:59.669Z,84.30
2018-03-02T05:48:29.463Z,84.20
2018-03-02T05:50:57.955Z,84.20
2018-03-02T05:53:27.119Z,84.40
2018-03-02T05:55:57.859Z,84.40
2018-03-02T05:58:26.272Z,84.30
2018-03-02T06:00:55.430Z,83.80
2018-03-02T06:03:23.756Z,83.70
2018-03-02T06:05:52.207Z,83.70
2018-03-02T06:08:20.660Z,84.20
2018-03-02T06:10:48.962Z,85.00
2018-03-02T06:13:17.303Z,84.00
2018-03-02T06:15:46.480Z,84.20
2018-03-02T06:18:14.832Z,84.30
2018-03-02T06:20:43.970Z,84.20
2018-03-02T06:23:12.322Z,84.10
2018-03-02T06:25:40.616Z,83.70
2018-03-02T06:28:09.014Z,84.20
2018-03-02T06:30:37.402Z,85.10
2018-03-02T06:33:06.090Z,84.30
2018-03-02T06:35:34.435Z,84.60
2018-03-02T06:38:02.820Z,84.40
2018-03-02T06:40:31.221Z,83.70
2018-03-02T06:42:59.535Z,83.50
2018-03-02T06:45:28.695Z,83.50
2018-03-02T06:47:57.814Z,84.10
2018-03-02T06:50:26.159Z,84.10
2018-03-02T06:52:54.507Z,84.20
2018-03-02T06:55:22.835Z,84.10
2018-03-02T06:57:51.129Z,83.80
2018-03-02T07:00:20.251Z,83.40
2018-03-02T07:02:48.564Z,83.40
2018-03-02T07:05:16.876Z,83.60
2018-03-02T07:07:46.759Z,83.70
2018-03-02T07:10:15.141Z,83.70
2018-03-02T07:12:43.513Z,83.10
2018-03-02T07:15:11.882Z,83.70
2018-03-02T07:17:40.317Z,83.10
2018-03-02T07:20:09.414Z,81.80
2018-03-02T07:22:38.573Z,82.60
2018-03-02T07:25:07.033Z,82.60
2018-03-02T07:27:35.448Z,83.00
2018-03-02T07:30:03.972Z,82.70
2018-03-02T07:32:32.348Z,83.00
2018-03-02T07:35:00.703Z,81.80
2018-03-02T07:37:29.792Z,81.20
2018-03-02T07:39:58.898Z,81.10
2018-03-02T07:42:27.977Z,80.40
2018-03-02T07:44:57.122Z,80.90
2018-03-02T07:47:25.444Z,80.90
2018-03-02T07:49:53.811Z,81.80
2018-03-02T07:52:22.196Z,81.90
2018-03-02T07:54:50.556Z,80.70
2018-03-02T07:57:18.883Z,81.00
2018-03-02T07:59:47.347Z,80.30
2018-03-02T08:02:16.405Z,81.10
2018-03-02T08:04:44.680Z,81.00
2018-03-02T08:07:13.041Z,80.60
2018-03-02T08:09:41.355Z,79.20
2018-03-02T08:12:09.632Z,79.40
2018-03-02T08:14:38.011Z,79.70
2018-03-02T08:17:06.405Z,80.40
2018-03-02T08:19:35.481Z,79.40
2018-03-02T08:22:03.873Z,79.30
2018-03-02T08:24:32.915Z,79.90
2018-03-02T08:27:01.187Z,79.80
2018-03-02T08:29:29.534Z,79.90
2018-03-02T08:31:57.835Z,79.40
2018-03-02T08:34:26.204Z,78.40
2018-03-02T08:36:54.508Z,78.10
2018-03-02T08:39:22.765Z,77.40
2018-03-02T08:41:51.093Z,76.50
2018-03-02T08:44:19.389Z,75.60
2018-03-02T08:46:48.504Z,76.10
2018-03-02T08:49:16.853Z,76.10
2018-03-02T08:51:45.999Z,76.80
2018-03-02T08:54:14.290Z,76.80
2018-03-02T08:56:42.586Z,76.90
2018-03-02T08:59:10.978Z,76.50
2018-03-02T09:01:40.112Z,75.40
2018-03-02T09:04:08.435Z,75.40
2018-03-02T09:06:36.796Z,75.40
2018-03-02T09:09:05.181Z,75.70
2018-03-02T09:11:33.513Z,76.00
2018-03-02T09:14:01.883Z,76.60
2018-03-02T09:16:30.223Z,75.80
2018-03-02T09:18:58.582Z,76.40
2018-03-02T09:21:26.946Z,76.80
2018-03-02T09:23:55.285Z,76.80
2018-03-02T09:26:23.593Z,76.70
2018-03-02T09:28:52.767Z,76.70
2018-03-02T09:31:21.134Z,76.70
2018-03-02T09:33:49.481Z,76.80
2018-03-02T09:36:17.866Z,77.20
2018-03-02T09:38:46.298Z,77.60
2018-03-02T09:41:14.629Z,77.50
2018-03-02T09:43:43.717Z,76.90
2018-03-02T09:46:12.891Z,76.00
2018-03-02T09:48:41.164Z,75.90
2018-03-02T09:51:09.684Z,75.70
2018-03-02T09:53:38.755Z,77.20
2018-03-02T09:56:07.096Z,77.20
2018-03-02T09:58:35.504Z,77.40
2018-03-02T10:01:04.659Z,77.30
2018-03-02T10:03:33.008Z,77.30
2018-03-02T10:06:02.221Z,78.20
2018-03-02T10:08:30.556Z,78.20
2018-03-02T10:10:58.838Z,77.40
2018-03-02T10:13:27.370Z,76.40
2018-03-02T10:15:55.713Z,76.50
2018-03-02T10:18:24.051Z,76.30
2018-03-02T10:20:52.464Z,75.90
2018-03-02T10:23:21.555Z,76.00
2018-03-02T10:25:50.081Z,76.20
2018-03-02T10:28:18.548Z,75.60
2018-03-02T10:30:46.987Z,75.30
2018-03-02T10:33:16.333Z,74.20
2018-03-02T10:35:45.631Z,74.90
2018-03-02T10:38:14.559Z,75.70
2018-03-02T10:40:43.601Z,74.50
2018-03-02T10:43:12.827Z,74.00
2018-03-02T10:45:41.778Z,75.00
2018-03-02T10:48:11.011Z,74.80
2018-03-02T10:50:39.505Z,74.70
2018-03-02T10:53:08.226Z,75.20
2018-03-02T10:55:36.579Z,75.10
2018-03-02T10:58:05.039Z,76.10
2018-03-02T11:00:39.079Z,75.70
2018-03-02T11:03:07.535Z,75.40
2018-03-02T11:05:41.494Z,75.10
2018-03-02T11:08:10.631Z,73.90
2018-03-02T11:10:38.975Z,73.90
2018-03-02T11:13:08.069Z,75.20
2018-03-02T11:15:37.160Z,75.50
2018-03-02T11:18:05.501Z,75.50
2018-03-02T11:20:33.813Z,75.90
2018-03-02T11:23:02.949Z,75.50
2018-03-02T11:25:31.279Z,75.50
2018-03-02T11:28:00.372Z,75.70
2018-03-02T11:30:28.731Z,75.70
2018-03-02T11:32:57.075Z,75.30
2018-03-02T11:35:25.361Z,75.10
2018-03-02T11:37:53.712Z,74.60
2018-03-02T11:40:22.026Z,74.10
2018-03-02T11:42:50.383Z,74.80
2018-03-02T11:45:19.413Z,74.50
2018-03-02T11:47:48.398Z,73.60
2018-03-02T11:50:17.146Z,74.00
2018-03-02T11:52:45.876Z,73.60
2018-03-02T11:55:14.976Z,73.60
2018-03-02T11:57:43.265Z,73.50
2018-03-02T12:00:11.715Z,72.50
2018-03-02T12:02:40.043Z,72.40
2018-03-02T12:05:09.266Z,71.70
2018-03-02T12:07:37.600Z,71.60
2018-03-02T12:10:05.949Z,71.60
2018-03-02T12:12:34.252Z,72.50
2018-03-02T12:15:02.556Z,71.80
2018-03-02T12:17:31.797Z,71.50
2018-03-02T12:20:00.160Z,71.50
2018-03-02T12:22:28.479Z,72.60
2018-03-02T12:24:56.798Z,72.60
2018-03-02T12:27:25.113Z,72.60
2018-03-02T12:29:53.483Z,72.60
2018-03-02T12:32:21.911Z,72.70
2018-03-02T12:34:50.972Z,72.90
2018-03-02T12:37:19.369Z,72.90
2018-03-02T12:39:47.689Z,73.20
2018-03-02T12:42:16.013Z,72.90
2018-03-02T12:44:44.359Z,72.50
2018-03-02T12:47:12.715Z,73.20
2018-03-02T12:49:41.030Z,73.70
2018-03-02T12:52:10.412Z,72.40
2018-03-02T12:54:38.879Z,72.30
2018-03-02T12:57:07.131Z,72.80
2018-03-02T12:59:36.280Z,72.00
2018-03-02T13:02:04.656Z,71.80
2018-03-02T13:04:33.034Z,71.80
2018-03-02T13:07:02.195Z,73.60
2018-03-02T13:09:30.537Z,73.60
2018-03-02T13:11:58.866Z,73.30
2018-03-02T13:14:27.238Z,73.10
2018-03-02T13:16:55.570Z,73.40
2018-03-02T13:19:24.844Z,73.30
2018-03-02T13:21:53.224Z,73.40
2018-03-02T13:24:23.220Z,72.30
2018-03-02T13:27:09.526Z,72.40
2018-03-02T13:29:37.904Z,71.70
2018-03-02T13:32:07.050Z,72.50
2018-03-02T13:34:54.162Z,73.20
2018-03-02T13:37:22.591Z,73.10
2018-03-02T13:40:08.688Z,73.00
2018-03-02T13:42:37.175Z,72.60
2018-03-02T13:45:05.561Z,72.00
2018-03-02T13:50:39.232Z,71.30
2018-03-02T13:53:08.393Z,71.90
2018-03-02T13:55:36.740Z,71.90
2018-03-02T13:58:05.214Z,72.20
2018-03-02T14:00:33.681Z,72.60
2018-03-02T14:03:19.761Z,71.80
2018-03-02T14:05:48.873Z,72.40
2018-03-02T14:08:17.229Z,72.30
2018-03-02T14:10:46.342Z,72.20
2018-03-02T14:13:14.678Z,72.30
2018-03-02T14:15:43.813Z,71.70
2018-03-02T14:18:12.209Z,71.80
2018-03-02T14:20:40.602Z,71.90
2018-03-02T14:23:08.917Z,71.80
2018-03-02T14:25:37.273Z,71.80
2018-03-02T14:28:05.664Z,71.40
2018-03-02T14:30:34.015Z,71.20
2018-03-02T14:33:02.340Z,71.30
2018-03-02T14:35:31.477Z,71.40
2018-03-02T14:37:59.782Z,71.40
2018-03-02T14:40:28.106Z,71.60
2018-03-02T14:42:56.444Z,71.80
2018-03-02T14:45:25.748Z,72.40
2018-03-02T14:47:54.074Z,71.40
2018-03-02T14:50:22.482Z,71.20
2018-03-02T14:52:50.891Z,71.30
2018-03-02T14:55:20.073Z,72.10
2018-03-02T14:57:48.430Z,72.10
2018-03-02T15:00:16.745Z,70.80
2018-03-02T15:02:45.044Z,71.20
2018-03-02T15:05:13.421Z,71.10
2018-03-02T15:07:41.833Z,71.60
2018-03-02T15:10:10.923Z,71.60
2018-03-02T15:12:39.324Z,71.50
2018-03-02T15:15:07.754Z,72.20
2018-03-02T15:17:36.119Z,72.50
2018-03-02T15:20:05.245Z,72.10
2018-03-02T15:22:33.559Z,72.10
2018-03-02T15:25:01.862Z,71.40
2018-03-02T15:27:30.992Z,72.00
2018-03-02T15:29:59.315Z,72.00
2018-03-02T15:32:27.678Z,71.60
2018-03-02T15:34:56.769Z,72.10
2018-03-02T15:37:25.142Z,72.00
2018-03-02T15:39:53.442Z,73.00
2018-03-02T15:42:21.824Z,72.00
2018-03-02T15:44:50.129Z,71.60
2018-03-02T15:47:19.272Z,72.40
2018-03-02T15:49:47.619Z,72.30
2018-03-02T15:52:15.958Z,72.30
2018-03-02T15:54:44.279Z,72.60
2018-03-02T15:57:12.651Z,73.30
2018-03-02T15:59:40.973Z,74.00
2018-03-02T16:02:09.327Z,74.20
2018-03-02T16:04:37.671Z,73.80
2018-03-02T16:07:06.772Z,73.30
2018-03-02T16:09:35.082Z,73.30
2018-03-02T16:12:03.401Z,73.50
2018-03-02T16:14:31.650Z,73.10
2018-03-02T16:16:59.928Z,72.80
2018-03-02T16:19:28.242Z,72.70
2018-03-02T16:21:57.325Z,73.60
2018-03-02T16:24:26.418Z,74.10
2018-03-02T16:26:54.734Z,74.00
2018-03-02T16:29:22.973Z,74.50
2018-03-02T16:31:52.030Z,74.20
2018-03-02T16:34:20.329Z,74.10
2018-03-02T16:36:48.618Z,73.90
2018-03-02T16:39:16.945Z,74.10
2018-03-02T16:41:45.522Z,73.90
2018-03-02T16:44:13.814Z,73.50
2018-03-02T16:46:42.165Z,74.20
2018-03-02T16:49:10.494Z,74.50
2018-03-02T16:51:38.817Z,73.90
2018-03-02T16:54:07.153Z,73.20
2018-03-02T16:56:35.538Z,73.80
2018-03-02T16:59:03.822Z,73.80
2018-03-02T17:01:32.915Z,75.10
2018-03-02T17:04:02.026Z,74.10
2018-03-02T17:06:31.106Z,73.90
2018-03-02T17:09:00.178Z,73.80
2018-03-02T17:11:28.605Z,73.80
2018-03-02T17:13:56.875Z,74.20
2018-03-02T17:16:25.214Z,74.70
2018-03-02T17:18:53.566Z,74.20
2018-03-02T17:21:21.922Z,74.10
2018-03-02T17:23:50.225Z,74.40
2018-03-02T17:26:18.606Z,74.80
2018-03-02T17:28:48.605Z,74.50
2018-03-02T17:31:16.886Z,74.50
2018-03-02T17:33:45.223Z,74.30
2018-03-02T17:36:14.316Z,75.90
2018-03-02T17:38:43.385Z,75.30
2018-03-02T17:41:11.759Z,75.20
2018-03-02T17:43:40.016Z,75.20
2018-03-02T17:46:08.342Z,75.60
2018-03-02T17:48:37.458Z,75.80
2018-03-02T17:51:05.796Z,75.80
2018-03-02T17:53:34.884Z,76.90
2018-03-02T17:56:03.206Z,76.80
2018-03-02T17:58:31.493Z,76.60
2018-03-02T18:00:59.824Z,76.40
2018-03-02T18:03:28.151Z,76.60
2018-03-02T18:05:56.497Z,76.10
2018-03-02T18:08:25.598Z,77.60
2018-03-02T18:10:54.857Z,77.40
2018-03-02T18:13:24.081Z,77.30
2018-03-02T18:15:53.503Z,77.50
2018-03-02T18:18:21.842Z,77.40
2018-03-02T18:20:50.984Z,79.10
2018-03-02T18:23:19.601Z,79.10
2018-03-02T18:25:48.096Z,78.50
2018-03-02T18:28:16.469Z,78.70
2018-03-02T18:30:45.642Z,79.80
2018-03-02T18:33:14.061Z,80.20
2018-03-02T18:35:42.380Z,81.60
2018-03-02T18:38:10.682Z,80.40
2018-03-02T18:40:39.034Z,80.00
2018-03-02T18:43:07.418Z,80.10
2018-03-02T18:45:35.714Z,81.50
2018-03-02T18:48:04.064Z,81.50
2018-03-02T18:50:32.369Z,82.10
2018-03-02T18:53:00.702Z,82.70
2018-03-02T18:55:29.842Z,85.00
2018-03-02T18:57:58.136Z,85.00
2018-03-02T19:00:26.436Z,86.20
2018-03-02T19:02:54.753Z,86.60
2018-03-02T19:05:23.126Z,86.20
2018-03-02T19:07:51.390Z,87.20
2018-03-02T19:10:20.583Z,84.90
2018-03-02T19:12:48.832Z,84.90
2018-03-02T19:15:17.130Z,85.00
2018-03-02T19:17:46.287Z,86.30
2018-03-02T19:20:14.553Z,86.30
2018-03-02T19:22:43.065Z,87.40
2018-03-02T19:25:11.392Z,86.20
2018-03-02T19:27:39.704Z,86.30
2018-03-02T19:30:08.006Z,86.20
2018-03-02T19:32:37.109Z,87.20
2018-03-02T19:35:06.158Z,87.60
2018-03-02T19:37:34.444Z,87.50
2018-03-02T19:40:02.792Z,88.10
2018-03-02T19:42:31.068Z,88.10
2018-03-02T19:44:59.347Z,87.80
2018-03-02T19:47:27.682Z,87.60
2018-03-02T19:49:56.733Z,88.00
2018-03-02T19:52:25.032Z,88.00
2018-03-02T19:54:53.356Z,88.10
2018-03-02T19:57:21.633Z,88.40
2018-03-02T19:59:49.966Z,88.90
2018-03-02T20:02:18.282Z,89.50
2018-03-02T20:04:46.578Z,89.10
2018-03-02T20:07:14.858Z,88.80
2018-03-02T20:09:43.204Z,89.80
2018-03-02T20:12:11.481Z,90.20
2018-03-02T20:14:39.857Z,90.60
2018-03-02T20:17:08.210Z,90.90
2018-03-02T20:19:37.356Z,91.20
2018-03-02T20:22:05.692Z,91.50
2018-03-02T20:24:34.786Z,92.00
2018-03-02T20:27:03.909Z,91.80
2018-03-02T20:29:32.307Z,91.80
2018-03-02T20:32:00.713Z,91.60
2018-03-02T20:34:29.119Z,91.10
2018-03-02T20:36:58.233Z,90.60
2018-03-02T20:39:27.468Z,90.60
2018-03-02T20:41:55.955Z,90.50
2018-03-02T20:44:24.384Z,90.30
2018-03-02T20:46:52.800Z,91.30
2018-03-02T20:49:21.146Z,91.70
2018-03-02T20:51:49.477Z,91.50
2018-03-02T20:54:17.873Z,91.70
2018-03-02T20:56:46.193Z,91.30
2018-03-02T20:59:14.546Z,91.40
2018-03-02T21:01:43.721Z,91.60
2018-03-02T21:04:12.043Z,91.60
2018-03-02T21:06:40.438Z,91.60
2018-03-02T21:09:08.783Z,91.30
2018-03-02T21:11:37.849Z,91.70
2018-03-02T21:14:07.426Z,91.40
2018-03-02T21:16:35.842Z,91.30
2018-03-02T21:19:04.901Z,91.40
2018-03-02T21:21:33.234Z,91.40
2018-03-02T21:24:02.397Z,91.80
2018-03-02T21:26:30.708Z,91.80
2018-03-02T21:28:59.794Z,91.50
2018-03-02T21:31:28.913Z,91.70
2018-03-02T21:33:57.238Z,91.30
2018-03-02T21:36:25.602Z,92.00
2018-03-02T21:38:54.192Z,92.20
2018-03-02T21:41:23.427Z,92.30
2018-03-02T21:43:52.491Z,92.00
2018-03-02T21:46:20.832Z,92.00
2018-03-02T21:48:49.149Z,92.00
2018-03-02T21:51:18.305Z,92.00
2018-03-02T21:53:46.664Z,91.90
2018-03-02T21:56:15.034Z,92.10
2018-03-02T21:58:43.393Z,92.20
2018-03-02T22:01:11.795Z,92.20
2018-03-02T22:03:40.474Z,91.70
2018-03-02T22:06:09.594Z,91.80
2018-03-02T22:08:37.985Z,91.80
2018-03-02T22:11:06.355Z,91.90
2018-03-02T22:13:34.638Z,92.00
2018-03-02T22:16:02.965Z,92.00
2018-03-02T22:18:31.954Z,91.90
2018-03-02T22:21:01.051Z,91.80
2018-03-02T22:23:29.339Z,92.10
2018-03-02T22:25:58.464Z,91.80
2018-03-02T22:28:26.756Z,91.80
2018-03-02T22:30:55.053Z,91.70
2018-03-02T22:33:24.235Z,91.80
2018-03-02T22:35:52.616Z,91.60
2018-03-02T22:38:21.118Z,91.30
2018-03-02T22:40:49.443Z,91.60
2018-03-02T22:43:17.804Z,91.70
2018-03-02T22:45:46.195Z,91.50
2018-03-02T22:48:14.637Z,91.30
2018-03-02T22:50:43.041Z,91.20
2018-03-02T22:53:11.392Z,91.30
2018-03-02T22:55:39.709Z,91.80
2018-03-02T22:58:08.066Z,91.80
2018-03-02T23:00:37.197Z,91.90
2018-03-02T23:03:05.490Z,91.80
2018-03-02T23:05:33.834Z,92.00
2018-03-02T23:08:02.185Z,92.20
2018-03-02T23:10:30.513Z,92.40
2018-03-02T23:12:58.908Z,92.60
2018-03-02T23:15:27.279Z,92.50
2018-03-02T23:17:55.593Z,92.30
2018-03-02T23:20:23.916Z,91.90
2018-03-02T23:22:53.114Z,91.80
2018-03-02T23:25:21.473Z,91.50
2018-03-02T23:27:49.787Z,91.60
2018-03-02T23:30:18.233Z,91.90
2018-03-02T23:32:46.562Z,92.30
2018-03-02T23:35:14.908Z,92.20
2018-03-02T23:37:43.289Z,92.10
2018-03-02T23:40:11.555Z,92.10
2018-03-02T23:42:39.871Z,92.00
2018-03-02T23:45:08.233Z,92.00
2018-03-02T23:47:36.586Z,91.90
2018-03-02T23:50:04.882Z,91.90
2018-03-02T23:52:33.226Z,92.00
2018-03-02T23:55:01.585Z,92.00
2018-03-02T23:57:31.393Z,92.50
